createdAt,value
2018-06-14T00:02:06.101Z,75.84
2018-06-14T00:04:35.176Z,75.56
2018-06-14T00:07:04.177Z,75.58
2018-06-14T00:09:33.170Z,74.52
2018-06-14T00:12:01.887Z,73.95
2018-06-14T00:14:30.563Z,73.59
2018-06-14T00:16:59.498Z,74.41
2018-06-14T00:19:28.303Z,75.18
2018-06-14T00:21:57.003Z,74.74
2018-06-14T00:24:25.854Z,74.99
2018-06-14T00:26:54.831Z,74.17
2018-06-14T00:29:23.566Z,74.62
2018-06-14T00:31:52.513Z,75.46
2018-06-14T00:34:21.120Z,75.47
2018-06-14T00:36:49.959Z,75.19
2018-06-14T00:39:18.750Z,74.97
2018-06-14T00:41:47.692Z,76.05
2018-06-14T00:44:16.706Z,75.65
2018-06-14T00:46:45.826Z,75.59
2018-06-14T00:49:20.591Z,75.52
2018-06-14T00:51:49.622Z,75.50
2018-06-14T00:54:18.747Z,76.17
2018-06-14T00:56:58.518Z,76.02
2018-06-14T00:59:27.539Z,75.72
2018-06-14T01:01:56.482Z,75.84
2018-06-14T01:04:25.383Z,76.16
2018-06-14T01:06:54.428Z,76.54
2018-06-14T01:09:23.386Z,76.76
2018-06-14T01:11:52.381Z,77.03
2018-06-14T01:14:21.301Z,77.35
2018-06-14T01:16:56.727Z,77.19
2018-06-14T01:19:25.714Z,77.10
2018-06-14T01:21:54.683Z,77.20
2018-06-14T01:24:23.571Z,77.50
2018-06-14T01:26:55.249Z,77.75
2018-06-14T01:29:24.477Z,77.67
2018-06-14T01:31:53.471Z,77.02
2018-06-14T01:34:22.439Z,76.55
2018-06-14T01:36:51.399Z,76.51
2018-06-14T01:39:20.409Z,76.92
2018-06-14T01:41:49.440Z,76.43
2018-06-14T01:44:18.377Z,77.13
2018-06-14T01:46:47.347Z,76.90
2018-06-14T01:49:16.339Z,76.92
2018-06-14T01:51:45.304Z,76.76
2018-06-14T01:54:14.183Z,75.97
2018-06-14T01:56:43.171Z,73.85
2018-06-14T01:59:12.248Z,74.61
2018-06-14T02:01:41.248Z,75.14
2018-06-14T02:04:09.919Z,74.21
2018-06-14T02:06:38.897Z,74.54
2018-06-14T02:09:08.844Z,74.61
2018-06-14T02:11:37.973Z,74.22
2018-06-14T02:14:07.120Z,74.16
2018-06-14T02:16:36.183Z,73.42
2018-06-14T02:19:05.195Z,74.17
2018-06-14T02:21:34.171Z,73.55
2018-06-14T02:24:03.198Z,73.73
2018-06-14T02:26:32.183Z,74.19
2018-06-14T02:29:01.264Z,74.33
2018-06-14T02:31:30.327Z,72.31
2018-06-14T02:33:59.303Z,73.14
2018-06-14T02:36:28.339Z,72.46
2018-06-14T02:38:57.310Z,73.24
2018-06-14T02:41:26.269Z,73.79
2018-06-14T02:43:55.224Z,73.05
2018-06-14T02:46:23.908Z,72.95
2018-06-14T02:48:52.541Z,72.61
2018-06-14T02:51:21.324Z,73.40
2018-06-14T02:53:50.338Z,72.77
2018-06-14T02:56:19.292Z,72.05
2018-06-14T02:58:52.805Z,71.79
2018-06-14T03:01:21.545Z,72.67
2018-06-14T03:03:50.227Z,72.76
2018-06-14T03:06:18.925Z,72.83
2018-06-14T03:08:47.644Z,72.06
2018-06-14T03:11:16.272Z,72.15
2018-06-14T03:13:45.120Z,72.53
2018-06-14T03:16:14.005Z,72.41
2018-06-14T03:18:42.990Z,72.81
2018-06-14T03:21:11.948Z,72.37
2018-06-14T03:23:40.950Z,72.53
2018-06-14T03:26:10.117Z,72.89
2018-06-14T03:28:39.099Z,72.68
2018-06-14T03:31:08.057Z,72.76
2018-06-14T03:33:36.702Z,72.82
2018-06-14T03:36:05.502Z,71.50
2018-06-14T03:38:34.205Z,71.78
2018-06-14T03:41:02.821Z,72.22
2018-06-14T03:43:31.474Z,72.07
2018-06-14T03:46:00.438Z,72.22
2018-06-14T03:48:29.418Z,72.53
2018-06-14T03:50:58.437Z,72.98
2018-06-14T03:53:27.409Z,73.74
2018-06-14T03:55:56.412Z,73.85
2018-06-14T03:58:25.262Z,73.24
2018-06-14T04:00:54.219Z,72.73
2018-06-14T04:03:23.139Z,72.72
2018-06-14T04:05:52.053Z,73.07
2018-06-14T04:08:21.497Z,73.68
2018-06-14T04:10:50.463Z,72.69
2018-06-14T04:13:19.461Z,72.54
2018-06-14T04:15:48.416Z,71.81
2018-06-14T04:18:17.379Z,71.75
2018-06-14T04:20:46.339Z,71.64
2018-06-14T04:23:15.268Z,71.81
2018-06-14T04:25:44.221Z,72.39
2018-06-14T04:28:13.156Z,73.07
2018-06-14T04:30:42.077Z,72.26
2018-06-14T04:33:11.007Z,71.84
2018-06-14T04:35:39.965Z,72.39
2018-06-14T04:38:08.870Z,72.45
2018-06-14T04:40:37.923Z,72.58
2018-06-14T04:43:07.037Z,72.71
2018-06-14T04:45:35.863Z,71.76
2018-06-14T04:48:04.861Z,72.60
2018-06-14T04:50:33.836Z,71.33
2018-06-14T04:53:02.650Z,72.12
2018-06-14T04:55:31.500Z,72.09
2018-06-14T04:58:00.406Z,72.13
2018-06-14T05:00:29.181Z,72.25
2018-06-14T05:02:57.868Z,72.41
2018-06-14T05:05:26.878Z,72.26
2018-06-14T05:07:55.856Z,71.12
2018-06-14T05:10:24.869Z,70.67
2018-06-14T05:12:53.797Z,70.68
2018-06-14T05:15:22.779Z,71.13
2018-06-14T05:17:51.721Z,70.36
2018-06-14T05:20:20.626Z,69.72
2018-06-14T05:22:49.602Z,69.58
2018-06-14T05:25:18.668Z,70.19
2018-06-14T05:27:47.596Z,69.17
2018-06-14T05:30:16.755Z,69.40
2018-06-14T05:32:45.384Z,69.87
2018-06-14T05:35:14.217Z,70.20
2018-06-14T05:37:43.184Z,68.77
2018-06-14T05:40:12.125Z,68.24
2018-06-14T05:42:41.183Z,68.88
2018-06-14T05:45:10.129Z,69.30
2018-06-14T05:47:39.235Z,69.25
2018-06-14T05:50:11.909Z,69.58
2018-06-14T05:52:41.001Z,69.90
2018-06-14T05:55:09.951Z,69.89
2018-06-14T05:57:38.939Z,69.94
2018-06-14T06:00:11.743Z,69.65
2018-06-14T06:02:40.549Z,68.89
2018-06-14T06:05:09.219Z,69.31
2018-06-14T06:07:38.176Z,68.55
2018-06-14T06:10:07.481Z,68.51
2018-06-14T06:12:36.605Z,68.36
2018-06-14T06:15:06.071Z,68.91
2018-06-14T06:17:35.053Z,68.81
2018-06-14T06:20:03.851Z,68.64
2018-06-14T06:22:32.650Z,68.54
2018-06-14T06:25:02.446Z,68.67
2018-06-14T06:27:31.153Z,68.59
2018-06-14T06:30:00.109Z,66.67
2018-06-14T06:32:29.196Z,67.36
2018-06-14T06:34:58.198Z,67.48
2018-06-14T06:37:26.949Z,68.02
2018-06-14T06:39:56.480Z,67.77
2018-06-14T06:42:25.129Z,67.01
2018-06-14T06:44:53.985Z,67.06
2018-06-14T06:47:22.969Z,67.46
2018-06-14T06:49:52.175Z,67.05
2018-06-14T06:52:21.172Z,67.03
2018-06-14T06:54:50.412Z,66.72
2018-06-14T06:57:19.216Z,65.95
2018-06-14T06:59:49.430Z,65.27
2018-06-14T07:02:18.342Z,65.69
2018-06-14T07:04:47.294Z,66.60
2018-06-14T07:07:16.144Z,66.71
2018-06-14T07:09:45.119Z,66.30
2018-06-14T07:12:14.070Z,65.66
2018-06-14T07:14:42.999Z,65.24
2018-06-14T07:17:12.001Z,65.71
2018-06-14T07:19:40.968Z,66.33
2018-06-14T07:22:09.883Z,66.35
2018-06-14T07:24:38.832Z,65.66
2018-06-14T07:27:07.883Z,65.65
2018-06-14T07:29:36.897Z,65.13
2018-06-14T07:32:05.943Z,63.14
2018-06-14T07:34:34.860Z,62.71
2018-06-14T07:37:03.814Z,63.21
2018-06-14T07:39:32.713Z,63.37
2018-06-14T07:42:01.487Z,63.36
2018-06-14T07:44:31.347Z,62.63
2018-06-14T07:47:00.351Z,63.32
2018-06-14T07:49:29.336Z,64.59
2018-06-14T07:51:58.251Z,63.54
2018-06-14T07:54:26.860Z,63.36
2018-06-14T07:56:55.954Z,64.47
2018-06-14T07:59:24.733Z,63.52
2018-06-14T08:01:54.266Z,63.98
2018-06-14T08:04:23.089Z,64.21
2018-06-14T08:06:51.587Z,62.76
2018-06-14T08:09:20.424Z,63.61
2018-06-14T08:11:49.217Z,62.74
2018-06-14T08:14:17.992Z,61.79
2018-06-14T08:16:46.654Z,62.02
2018-06-14T08:19:15.533Z,61.42
2018-06-14T08:21:44.326Z,60.35
2018-06-14T08:24:13.120Z,60.08
2018-06-14T08:26:41.973Z,59.94
2018-06-14T08:29:10.864Z,61.09
2018-06-14T08:31:45.166Z,60.29
2018-06-14T08:34:14.113Z,58.92
2018-06-14T08:36:43.024Z,57.57
2018-06-14T08:39:11.907Z,58.84
2018-06-14T08:41:40.827Z,57.60
2018-06-14T08:44:09.737Z,58.44
2018-06-14T08:46:41.449Z,58.27
2018-06-14T08:49:10.549Z,58.07
2018-06-14T08:51:39.689Z,57.39
2018-06-14T08:54:09.014Z,57.52
2018-06-14T08:56:38.162Z,57.84
2018-06-14T08:59:07.281Z,57.25
2018-06-14T09:01:36.557Z,57.28
2018-06-14T09:04:06.063Z,56.17
2018-06-14T09:06:35.212Z,57.16
2018-06-14T09:09:09.877Z,57.28
2018-06-14T09:11:39.487Z,57.15
2018-06-14T09:14:09.157Z,57.28
2018-06-14T09:16:38.886Z,58.02
2018-06-14T09:19:08.172Z,56.74
2018-06-14T09:21:54.222Z,56.06
2018-06-14T09:24:23.217Z,57.50
2018-06-14T09:26:52.224Z,57.03
2018-06-14T09:29:21.086Z,57.28
2018-06-14T09:31:50.678Z,56.82
2018-06-14T09:34:20.030Z,56.74
2018-06-14T09:36:49.185Z,56.00
2018-06-14T09:39:18.126Z,55.37
2018-06-14T09:41:47.004Z,55.91
2018-06-14T09:44:15.870Z,54.55
2018-06-14T09:46:44.965Z,55.77
2018-06-14T09:49:16.131Z,55.40
2018-06-14T09:51:46.506Z,55.39
2018-06-14T09:54:15.503Z,55.18
2018-06-14T09:56:44.873Z,54.71
2018-06-14T09:59:14.645Z,55.62
2018-06-14T10:01:43.592Z,56.83
2018-06-14T10:04:12.386Z,57.24
2018-06-14T10:06:41.508Z,56.86
2018-06-14T10:09:12.065Z,57.04
2018-06-14T10:11:41.569Z,56.82
2018-06-14T10:14:10.887Z,54.75
2018-06-14T10:16:39.829Z,55.49
2018-06-14T10:19:08.883Z,54.93
2018-06-14T10:21:38.222Z,56.28
2018-06-14T10:24:07.451Z,56.62
2018-06-14T10:26:36.604Z,56.91
2018-06-14T10:29:05.713Z,56.92
2018-06-14T10:31:38.227Z,57.31
2018-06-14T10:34:07.680Z,58.03
2018-06-14T10:36:37.010Z,57.62
2018-06-14T10:39:07.804Z,56.78
2018-06-14T10:41:37.158Z,57.20
2018-06-14T10:44:06.281Z,57.09
2018-06-14T10:46:35.460Z,56.74
2018-06-14T10:49:04.800Z,55.99
2018-06-14T10:51:33.453Z,56.91
2018-06-14T10:54:02.114Z,57.14
2018-06-14T10:56:30.807Z,56.32
2018-06-14T10:58:59.736Z,56.09
2018-06-14T11:01:29.405Z,56.26
2018-06-14T11:03:59.116Z,56.19
2018-06-14T11:06:28.156Z,55.85
2018-06-14T11:08:57.326Z,57.09
2018-06-14T11:11:26.397Z,56.82
2018-06-14T11:13:55.597Z,57.12
2018-06-14T11:16:24.691Z,57.83
2018-06-14T11:18:53.657Z,57.44
2018-06-14T11:21:22.690Z,58.04
2018-06-14T11:23:51.677Z,57.69
2018-06-14T11:26:20.722Z,56.73
2018-06-14T11:28:49.723Z,56.93
2018-06-14T11:31:18.759Z,57.62
2018-06-14T11:33:47.679Z,57.38
2018-06-14T11:36:16.624Z,57.96
2018-06-14T11:38:46.068Z,58.19
2018-06-14T11:41:15.252Z,57.22
2018-06-14T11:43:44.377Z,56.75
2018-06-14T11:46:13.587Z,56.46
2018-06-14T11:48:42.832Z,55.22
2018-06-14T11:51:11.837Z,55.92
2018-06-14T11:53:40.887Z,55.36
2018-06-14T11:56:09.969Z,55.58
2018-06-14T11:58:38.897Z,55.18
2018-06-14T12:01:08.585Z,54.53
2018-06-14T12:03:37.610Z,53.75
2018-06-14T12:06:06.677Z,55.05
2018-06-14T12:08:35.643Z,53.92
2018-06-14T12:11:05.094Z,53.24
2018-06-14T12:13:40.995Z,54.87
2018-06-14T12:16:09.989Z,53.99
2018-06-14T12:18:39.457Z,54.17
2018-06-14T12:21:08.375Z,54.89
2018-06-14T12:23:37.387Z,54.98
2018-06-14T12:26:06.399Z,54.50
2018-06-14T12:28:35.383Z,55.31
2018-06-14T12:31:04.089Z,55.13
2018-06-14T12:33:33.102Z,54.06
2018-06-14T12:36:02.725Z,54.63
2018-06-14T12:38:32.062Z,55.19
2018-06-14T12:41:01.149Z,54.86
2018-06-14T12:43:30.498Z,54.56
2018-06-14T12:45:59.844Z,54.88
2018-06-14T12:48:28.967Z,54.38
2018-06-14T12:50:58.168Z,53.36
2018-06-14T12:53:27.168Z,53.43
2018-06-14T12:55:57.161Z,53.45
2018-06-14T12:58:26.592Z,54.17
2018-06-14T13:00:55.757Z,55.49
2018-06-14T13:03:24.931Z,55.84
2018-06-14T13:05:54.003Z,55.19
2018-06-14T13:08:23.137Z,54.33
2018-06-14T13:10:52.183Z,54.47
2018-06-14T13:13:21.362Z,53.30
2018-06-14T13:15:50.372Z,53.18
2018-06-14T13:18:22.655Z,52.97
2018-06-14T13:20:52.260Z,53.80
2018-06-14T13:23:21.332Z,53.02
2018-06-14T13:25:50.791Z,53.52
2018-06-14T13:28:19.869Z,53.33
2018-06-14T13:30:49.048Z,52.36
2018-06-14T13:33:18.044Z,52.46
2018-06-14T13:35:47.065Z,52.54
2018-06-14T13:38:16.068Z,52.47
2018-06-14T13:40:44.946Z,52.10
2018-06-14T13:43:14.331Z,53.48
2018-06-14T13:45:43.259Z,53.80
2018-06-14T13:48:12.591Z,54.48
2018-06-14T13:50:41.573Z,53.50
2018-06-14T13:53:10.423Z,54.35
2018-06-14T13:55:39.348Z,51.95
2018-06-14T13:58:08.273Z,53.45
2018-06-14T14:00:37.175Z,53.69
2018-06-14T14:03:07.024Z,53.41
2018-06-14T14:05:35.951Z,54.13
2018-06-14T14:08:04.860Z,54.13
2018-06-14T14:10:33.772Z,52.92
2018-06-14T14:13:02.681Z,53.67
2018-06-14T14:15:31.659Z,53.89
2018-06-14T14:18:00.702Z,53.83
2018-06-14T14:20:29.824Z,53.93
2018-06-14T14:22:58.888Z,54.90
2018-06-14T14:25:27.845Z,54.89
2018-06-14T14:27:56.824Z,54.83
2018-06-14T14:30:25.806Z,54.66
2018-06-14T14:32:54.777Z,55.04
2018-06-14T14:35:23.973Z,55.44
2018-06-14T14:37:52.738Z,55.06
2018-06-14T14:40:21.632Z,54.90
2018-06-14T14:42:50.629Z,55.50
2018-06-14T14:45:19.568Z,54.50
2018-06-14T14:47:48.722Z,54.32
2018-06-14T14:50:17.842Z,55.15
2018-06-14T14:52:46.812Z,55.36
2018-06-14T14:55:15.905Z,53.95
2018-06-14T14:57:44.841Z,54.73
2018-06-14T15:00:13.900Z,54.43
2018-06-14T15:02:42.949Z,54.84
2018-06-14T15:05:11.883Z,55.49
2018-06-14T15:07:40.820Z,54.26
2018-06-14T15:10:09.768Z,54.53
2018-06-14T15:12:38.717Z,53.18
2018-06-14T15:15:07.696Z,53.31
2018-06-14T15:17:36.754Z,53.82
2018-06-14T15:20:05.747Z,54.30
2018-06-14T15:22:35.268Z,54.29
2018-06-14T15:25:04.239Z,54.21
2018-06-14T15:27:33.249Z,54.70
2018-06-14T15:30:02.605Z,54.76
2018-06-14T15:32:31.982Z,54.93
2018-06-14T15:35:01.421Z,54.88
2018-06-14T15:37:30.374Z,55.15
2018-06-14T15:39:59.325Z,55.64
2018-06-14T15:42:28.300Z,55.35
2018-06-14T15:44:57.230Z,54.24
2018-06-14T15:47:26.283Z,54.90
2018-06-14T15:49:55.355Z,56.06
2018-06-14T15:52:24.419Z,56.16
2018-06-14T15:55:04.293Z,55.92
2018-06-14T15:57:33.355Z,56.34
2018-06-14T16:00:02.299Z,56.78
2018-06-14T16:02:31.280Z,56.32
2018-06-14T16:05:00.489Z,55.89
2018-06-14T16:07:29.431Z,56.09
2018-06-14T16:09:58.426Z,56.04
2018-06-14T16:12:27.430Z,55.82
2018-06-14T16:14:56.497Z,56.03
2018-06-14T16:17:25.449Z,55.56
2018-06-14T16:19:54.380Z,55.91
2018-06-14T16:22:23.323Z,56.55
2018-06-14T16:24:52.311Z,55.50
2018-06-14T16:27:21.309Z,55.21
2018-06-14T16:29:50.289Z,55.76
2018-06-14T16:32:19.265Z,55.63
2018-06-14T16:34:48.200Z,55.49
2018-06-14T16:37:17.397Z,56.47
2018-06-14T16:39:46.582Z,56.60
2018-06-14T16:42:15.671Z,56.31
2018-06-14T16:44:45.376Z,55.83
2018-06-14T16:47:14.510Z,56.47
2018-06-14T16:49:43.681Z,56.12
2018-06-14T16:52:12.782Z,55.16
2018-06-14T16:54:41.715Z,56.23
2018-06-14T16:57:10.744Z,56.58
2018-06-14T16:59:39.937Z,56.35
2018-06-14T17:02:08.953Z,55.97
2018-06-14T17:04:37.970Z,56.19
2018-06-14T17:07:06.958Z,56.57
2018-06-14T17:09:35.911Z,56.12
2018-06-14T17:12:05.079Z,56.35
2018-06-14T17:14:34.684Z,56.81
2018-06-14T17:17:03.635Z,57.18
2018-06-14T17:19:32.669Z,56.54
2018-06-14T17:22:04.836Z,56.97
2018-06-14T17:24:33.804Z,57.27
2018-06-14T17:27:04.993Z,57.54
2018-06-14T17:29:34.511Z,57.69
2018-06-14T17:32:03.756Z,57.55
2018-06-14T17:34:32.889Z,57.33
2018-06-14T17:37:02.002Z,57.60
2018-06-14T17:39:31.276Z,56.99
2018-06-14T17:42:00.602Z,57.50
2018-06-14T17:44:29.833Z,57.63
2018-06-14T17:46:59.193Z,58.13
2018-06-14T17:49:28.399Z,58.70
2018-06-14T17:51:57.646Z,58.17
2018-06-14T17:54:26.536Z,57.60
2018-06-14T17:56:55.514Z,57.41
2018-06-14T17:59:24.505Z,58.40
2018-06-14T18:01:53.542Z,58.57
2018-06-14T18:04:22.860Z,58.12
2018-06-14T18:06:52.070Z,59.11
2018-06-14T18:09:21.470Z,58.35
2018-06-14T18:11:50.780Z,58.70
2018-06-14T18:14:19.942Z,59.13
2018-06-14T18:16:48.982Z,58.91
2018-06-14T18:19:18.099Z,59.65
2018-06-14T18:21:47.132Z,59.70
2018-06-14T18:24:16.185Z,59.74
2018-06-14T18:26:45.195Z,59.64
2018-06-14T18:29:14.215Z,59.57
2018-06-14T18:31:43.186Z,59.70
2018-06-14T18:34:12.979Z,60.12
2018-06-14T18:36:42.116Z,60.60
2018-06-14T18:39:11.984Z,60.41
2018-06-14T18:41:40.961Z,60.62
2018-06-14T18:44:10.032Z,61.96
2018-06-14T18:46:39.911Z,61.72
2018-06-14T18:49:08.999Z,61.97
2018-06-14T18:51:38.010Z,61.57
2018-06-14T18:54:07.114Z,61.44
2018-06-14T18:56:36.145Z,62.08
2018-06-14T18:59:08.773Z,62.19
2018-06-14T19:01:37.746Z,61.74
2018-06-14T19:04:06.867Z,62.08
2018-06-14T19:06:37.272Z,61.95
2018-06-14T19:09:08.909Z,62.00
2018-06-14T19:11:38.687Z,62.38
2018-06-14T19:14:08.232Z,62.06
2018-06-14T19:16:37.266Z,62.23
2018-06-14T19:19:06.334Z,62.80
2018-06-14T19:21:35.297Z,63.28
2018-06-14T19:24:04.265Z,63.42
2018-06-14T19:26:49.071Z,63.45
2018-06-14T19:29:18.084Z,62.91
2018-06-14T19:31:47.112Z,62.91
2018-06-14T19:34:16.157Z,62.80
2018-06-14T19:36:45.080Z,63.23
2018-06-14T19:39:14.064Z,62.66
2018-06-14T19:41:43.064Z,62.77
2018-06-14T19:44:12.138Z,62.55
2018-06-14T19:46:41.180Z,62.45
2018-06-14T19:49:10.181Z,62.66
2018-06-14T19:51:39.092Z,62.95
2018-06-14T19:54:08.146Z,63.00
2018-06-14T19:56:37.101Z,62.14
2018-06-14T19:59:12.096Z,61.95
2018-06-14T20:01:41.136Z,61.79
2018-06-14T20:04:10.148Z,62.10
2018-06-14T20:06:39.164Z,62.44
2018-06-14T20:09:09.052Z,62.54
2018-06-14T20:11:38.028Z,62.42
2018-06-14T20:14:07.058Z,62.92
2018-06-14T20:16:36.044Z,62.72
2018-06-14T20:19:05.141Z,63.29
2018-06-14T20:21:34.135Z,62.17
2018-06-14T20:24:03.095Z,62.62
2018-06-14T20:26:32.073Z,62.83
2018-06-14T20:29:01.139Z,62.93
2018-06-14T20:31:30.086Z,62.60
2018-06-14T20:33:59.033Z,62.54
2018-06-14T20:36:28.027Z,62.61
2018-06-14T20:41:47.028Z,63.12
2018-06-14T20:44:15.982Z,63.03
2018-06-14T20:46:45.007Z,62.99
2018-06-14T20:49:13.987Z,62.79
2018-06-14T20:51:43.031Z,62.74
2018-06-14T20:54:12.037Z,62.88
2018-06-14T20:56:41.034Z,62.99
2018-06-14T20:59:09.989Z,62.99
2018-06-14T21:01:38.941Z,63.54
2018-06-14T21:04:08.024Z,63.53
2018-06-14T21:06:37.071Z,63.73
2018-06-14T21:09:08.848Z,63.32
2018-06-14T21:11:38.103Z,64.11
2018-06-14T21:14:07.165Z,63.79
2018-06-14T21:16:36.757Z,63.85
2018-06-14T21:19:05.742Z,64.22
2018-06-14T21:21:34.701Z,64.44
2018-06-14T21:24:03.694Z,64.99
2018-06-14T21:26:32.772Z,64.74
2018-06-14T21:29:01.776Z,65.50
2018-06-14T21:31:30.759Z,65.87
2018-06-14T21:33:59.724Z,65.43
2018-06-14T21:36:28.691Z,66.13
2018-06-14T21:38:57.712Z,65.74
2018-06-14T21:41:26.694Z,65.26
2018-06-14T21:43:55.686Z,64.83
2018-06-14T21:46:25.581Z,64.93
2018-06-14T21:48:54.676Z,64.68
2018-06-14T21:51:23.702Z,64.33
2018-06-14T21:53:52.735Z,64.61
2018-06-14T21:56:21.736Z,63.81
2018-06-14T21:58:50.756Z,64.32
2018-06-14T22:01:19.714Z,63.85
2018-06-14T22:03:56.522Z,64.27
2018-06-14T22:06:25.858Z,65.44
2018-06-14T22:08:54.836Z,64.91
2018-06-14T22:11:23.853Z,65.13
2018-06-14T22:13:52.839Z,65.33
2018-06-14T22:16:21.902Z,64.35
2018-06-14T22:18:50.935Z,64.15
2018-06-14T22:21:19.908Z,64.60
2018-06-14T22:23:48.865Z,63.77
2018-06-14T22:26:17.866Z,63.84
2018-06-14T22:28:46.829Z,64.44
2018-06-14T22:31:15.806Z,64.64
2018-06-14T22:33:55.552Z,65.06
2018-06-14T22:36:24.644Z,66.79
2018-06-14T22:38:53.635Z,66.73
2018-06-14T22:41:22.600Z,65.86
2018-06-14T22:43:51.679Z,65.00
2018-06-14T22:46:20.692Z,65.60
2018-06-14T22:48:49.784Z,65.56
2018-06-14T22:51:21.032Z,64.90
2018-06-14T22:53:50.028Z,65.08
2018-06-14T22:56:19.052Z,64.94
2018-06-14T22:58:48.206Z,65.02
2018-06-14T23:02:06.863Z,64.73
2018-06-14T23:04:35.893Z,64.30
2018-06-14T23:07:04.871Z,64.29
2018-06-14T23:10:42.348Z,63.78
2018-06-14T23:13:12.594Z,63.14
2018-06-14T23:15:41.491Z,63.28
2018-06-14T23:18:10.457Z,63.12
2018-06-14T23:20:39.587Z,63.10
2018-06-14T23:23:08.930Z,63.27
2018-06-14T23:25:38.297Z,63.19
2018-06-14T23:28:07.371Z,62.94
2018-06-14T23:30:36.674Z,62.88
2018-06-14T23:33:05.670Z,62.64
2018-06-14T23:35:34.633Z,62.96
2018-06-14T23:38:03.643Z,61.79
2018-06-14T23:40:32.601Z,62.31
2018-06-14T23:43:02.197Z,61.88
2018-06-14T23:45:31.225Z,62.04
2018-06-14T23:48:00.207Z,61.83
2018-06-14T23:50:29.094Z,61.51
2018-06-14T23:52:58.042Z,61.59
2018-06-14T23:55:27.040Z,61.38
2018-06-14T23:57:56.001Z,61.73
